Pays
Station

 

Conditions  météo  pour  Da Nang  -  Viet Nam    Viet Nam

  
19 °C
    
 
 

METAR pour Da Nang :

VVDN 212130Z 32002KT 3500 -RA BR FEW007 SCT012 BKN050 19/19 Q1019 NOSIG

 

Voici le bulletin pour Da Nang - Viet Nam.
 
Le bulletin a été fait il y a 29 minutes, à 21:30 UTC .
Le vent soufflait à la vitesse de 1.0 mètres par seconde de Nord-ouest (320°).
 
La température était de 19 °C, avec un point de rosée à 19 °C.
La pression atmosphérique était de 1019 hPa.
L'humidité relative était de 100.0%.
 
Il y avait 1 à 2/8ème de nébulosité à une hauteur de 213 mètres, 3 à 4/8ème de nébulosité à une hauteur de 366 mètres et 5 à 7/8ème de nébulosité à une hauteur de 1524 mètres.
 
La visibilité globale était de 3500 mètres.
 
Actuellement léger/legère pluie plus brume.

 
 
 

Pays :   A   B   C   D   E   F   G   H   I   J   K   L   M   N   O   P   Q   R   S   T   U   V   W   Y   Z

 

Partenaires :  Info Météo avec Met'info
Météo Marine avec MeteoMarine.net
Infos Site  |  Infos Légales  |  Crédits  |  Confidentialité
Contactez-nous  |  Ajouter aux favoris
© 2013-2019 METAR - Tous droits réservés